sensor_id;sensor_type;location;lat;lon;timestamp;temperature;humidity
1277;DHT22;631;51.024;13.826;2022-12-29T00:02:08;8.70;99.90
1277;DHT22;631;51.024;13.826;2022-12-29T00:04:34;8.70;99.90
1277;DHT22;631;51.024;13.826;2022-12-29T00:06:59;8.70;99.90
1277;DHT22;631;51.024;13.826;2022-12-29T00:09:25;8.70;99.90
1277;DHT22;631;51.024;13.826;2022-12-29T00:11:51;8.70;99.90
1277;DHT22;631;51.024;13.826;2022-12-29T00:14:17;8.80;99.90
1277;DHT22;631;51.024;13.826;2022-12-29T00:17:02;8.80;99.90
1277;DHT22;631;51.024;13.826;2022-12-29T00:19:27;8.90;99.90
1277;DHT22;631;51.024;13.826;2022-12-29T00:22:13;8.90;99.90
1277;DHT22;631;51.024;13.826;2022-12-29T00:24:58;9.00;99.90
1277;DHT22;631;51.024;13.826;2022-12-29T00:27:42;9.00;99.90
1277;DHT22;631;51.024;13.826;2022-12-29T00:30:26;9.10;99.90
1277;DHT22;631;51.024;13.826;2022-12-29T00:33:12;9.30;99.90
1277;DHT22;631;51.024;13.826;2022-12-29T00:36:59;9.60;99.90
1277;DHT22;631;51.024;13.826;2022-12-29T00:39:14;9.70;99.90
1277;DHT22;631;51.024;13.826;2022-12-29T00:42:05;9.90;99.90
1277;DHT22;631;51.024;13.826;2022-12-29T00:44:49;9.80;99.90
1277;DHT22;631;51.024;13.826;2022-12-29T00:47:15;9.80;99.90
1277;DHT22;631;51.024;13.826;2022-12-29T00:49:40;9.80;99.90
1277;DHT22;631;51.024;13.826;2022-12-29T00:52:09;9.80;99.90
1277;DHT22;631;51.024;13.826;2022-12-29T00:54:37;9.80;99.90
1277;DHT22;631;51.024;13.826;2022-12-29T00:57:04;9.90;99.90
1277;DHT22;631;51.024;13.826;2022-12-29T00:59:30;9.80;99.90
1277;DHT22;631;51.024;13.826;2022-12-29T01:01:57;9.80;99.90
1277;DHT22;631;51.024;13.826;2022-12-29T01:04:25;9.90;99.90
1277;DHT22;631;51.024;13.826;2022-12-29T01:06:51;9.80;99.90
1277;DHT22;631;51.024;13.826;2022-12-29T01:09:17;9.80;99.90
1277;DHT22;631;51.024;13.826;2022-12-29T01:12:02;9.70;99.90
1277;DHT22;631;51.024;13.826;2022-12-29T01:14:28;9.70;99.90
1277;DHT22;631;51.024;13.826;2022-12-29T01:16:55;9.70;99.90
1277;DHT22;631;51.024;13.826;2022-12-29T01:19:21;9.60;99.90
1277;DHT22;631;51.024;13.826;2022-12-29T01:21:47;9.50;99.90
1277;DHT22;631;51.024;13.826;2022-12-29T01:24:14;9.40;99.90
1277;DHT22;631;51.024;13.826;2022-12-29T01:26:40;9.40;99.90
1277;DHT22;631;51.024;13.826;2022-12-29T01:29:05;9.40;99.90
1277;DHT22;631;51.024;13.826;2022-12-29T01:31:31;9.30;99.90
1277;DHT22;631;51.024;13.826;2022-12-29T01:33:57;9.20;99.90
1277;DHT22;631;51.024;13.826;2022-12-29T01:36:23;9.20;99.90
1277;DHT22;631;51.024;13.826;2022-12-29T01:38:49;9.10;99.90
1277;DHT22;631;51.024;13.826;2022-12-29T01:41:15;9.10;99.90
1277;DHT22;631;51.024;13.826;2022-12-29T01:46:22;8.90;99.90
1277;DHT22;631;51.024;13.826;2022-12-29T01:49:00;8.80;99.90
1277;DHT22;631;51.024;13.826;2022-12-29T01:51:28;8.80;99.90
1277;DHT22;631;51.024;13.826;2022-12-29T01:53:59;8.80;99.90
1277;DHT22;631;51.024;13.826;2022-12-29T01:56:25;8.80;99.90
1277;DHT22;631;51.024;13.826;2022-12-29T01:58:59;8.80;99.90
1277;DHT22;631;51.024;13.826;2022-12-29T02:01:26;8.80;99.90
1277;DHT22;631;51.024;13.826;2022-12-29T02:03:52;8.80;99.90
1277;DHT22;631;51.024;13.826;2022-12-29T02:06:22;8.80;99.90
1277;DHT22;631;51.024;13.826;2022-12-29T02:08:50;8.80;99.90
1277;DHT22;631;51.024;13.826;2022-12-29T02:11:19;8.80;99.90
1277;DHT22;631;51.024;13.826;2022-12-29T02:13:46;8.80;99.90
1277;DHT22;631;51.024;13.826;2022-12-29T02:19:26;8.70;99.90
1277;DHT22;631;51.024;13.826;2022-12-29T02:27:52;8.70;99.90
1277;DHT22;631;51.024;13.826;2022-12-29T02:43:58;8.90;99.90
1277;DHT22;631;51.024;13.826;2022-12-29T02:49:11;9.00;99.90
1277;DHT22;631;51.024;13.826;2022-12-29T02:52:04;9.10;99.90
1277;DHT22;631;51.024;13.826;2022-12-29T02:54:32;9.20;99.90
1277;DHT22;631;51.024;13.826;2022-12-29T02:59:53;9.30;99.90
1277;DHT22;631;51.024;13.826;2022-12-29T03:07:57;9.40;99.90
1277;DHT22;631;51.024;13.826;2022-12-29T03:18:51;9.40;99.90
1277;DHT22;631;51.024;13.826;2022-12-29T03:21:35;9.40;99.90
1277;DHT22;631;51.024;13.826;2022-12-29T03:24:25;9.50;99.90
1277;DHT22;631;51.024;13.826;2022-12-29T03:26:54;9.50;99.90
1277;DHT22;631;51.024;13.826;2022-12-29T03:29:20;9.60;99.90
1277;DHT22;631;51.024;13.826;2022-12-29T03:31:48;9.50;99.90
1277;DHT22;631;51.024;13.826;2022-12-29T03:34:17;9.50;99.90
1277;DHT22;631;51.024;13.826;2022-12-29T03:36:50;9.50;99.90
1277;DHT22;631;51.024;13.826;2022-12-29T03:39:20;9.50;99.90
1277;DHT22;631;51.024;13.826;2022-12-29T03:41:50;9.50;99.90
1277;DHT22;631;51.024;13.826;2022-12-29T03:44:16;9.50;99.90
1277;DHT22;631;51.024;13.826;2022-12-29T03:46:41;9.50;99.90
1277;DHT22;631;51.024;13.826;2022-12-29T03:49:07;9.50;99.90
1277;DHT22;631;51.024;13.826;2022-12-29T03:51:33;9.40;99.90
1277;DHT22;631;51.024;13.826;2022-12-29T03:53:59;9.40;99.90
1277;DHT22;631;51.024;13.826;2022-12-29T03:56:24;9.40;99.90
1277;DHT22;631;51.024;13.826;2022-12-29T03:58:50;9.40;99.90
1277;DHT22;631;51.024;13.826;2022-12-29T04:01:15;9.40;99.90
1277;DHT22;631;51.024;13.826;2022-12-29T04:03:41;9.40;99.90
1277;DHT22;631;51.024;13.826;2022-12-29T04:06:07;9.40;99.90
1277;DHT22;631;51.024;13.826;2022-12-29T04:08:33;9.50;99.90
1277;DHT22;631;51.024;13.826;2022-12-29T04:10:58;9.50;99.90
1277;DHT22;631;51.024;13.826;2022-12-29T04:13:24;9.50;99.90
1277;DHT22;631;51.024;13.826;2022-12-29T04:15:49;9.50;99.90
1277;DHT22;631;51.024;13.826;2022-12-29T04:18:15;9.50;99.90
1277;DHT22;631;51.024;13.826;2022-12-29T04:20:41;9.60;99.90
1277;DHT22;631;51.024;13.826;2022-12-29T04:23:29;9.60;99.90
1277;DHT22;631;51.024;13.826;2022-12-29T04:25:55;9.60;99.90
1277;DHT22;631;51.024;13.826;2022-12-29T04:28:20;9.70;99.90
1277;DHT22;631;51.024;13.826;2022-12-29T04:30:46;9.70;99.90
1277;DHT22;631;51.024;13.826;2022-12-29T04:33:12;9.70;99.90
1277;DHT22;631;51.024;13.826;2022-12-29T04:35:38;9.60;99.90
1277;DHT22;631;51.024;13.826;2022-12-29T04:38:03;9.50;99.90
1277;DHT22;631;51.024;13.826;2022-12-29T04:40:29;9.60;99.90
1277;DHT22;631;51.024;13.826;2022-12-29T04:42:55;9.70;99.90
1277;DHT22;631;51.024;13.826;2022-12-29T04:45:20;9.70;99.90
1277;DHT22;631;51.024;13.826;2022-12-29T04:47:46;9.70;99.90
1277;DHT22;631;51.024;13.826;2022-12-29T04:50:12;9.80;99.90
1277;DHT22;631;51.024;13.826;2022-12-29T04:52:38;9.80;99.90
1277;DHT22;631;51.024;13.826;2022-12-29T04:55:04;9.90;99.90
1277;DHT22;631;51.024;13.826;2022-12-29T04:57:30;9.90;99.90
1277;DHT22;631;51.024;13.826;2022-12-29T04:59:55;9.90;99.90
1277;DHT22;631;51.024;13.826;2022-12-29T05:02:21;10.00;99.90
1277;DHT22;631;51.024;13.826;2022-12-29T05:04:47;10.10;99.90
1277;DHT22;631;51.024;13.826;2022-12-29T05:07:13;10.10;99.90
1277;DHT22;631;51.024;13.826;2022-12-29T05:09:39;10.20;99.90
1277;DHT22;631;51.024;13.826;2022-12-29T05:12:05;10.30;99.90
1277;DHT22;631;51.024;13.826;2022-12-29T05:14:31;10.30;99.90
1277;DHT22;631;51.024;13.826;2022-12-29T05:16:56;10.30;99.90
1277;DHT22;631;51.024;13.826;2022-12-29T05:19:22;10.30;99.90
1277;DHT22;631;51.024;13.826;2022-12-29T05:21:47;10.30;99.90
1277;DHT22;631;51.024;13.826;2022-12-29T05:24:13;10.20;99.90
1277;DHT22;631;51.024;13.826;2022-12-29T05:26:40;10.10;99.90
1277;DHT22;631;51.024;13.826;2022-12-29T05:29:06;10.10;99.90
1277;DHT22;631;51.024;13.826;2022-12-29T05:31:32;10.10;99.90
1277;DHT22;631;51.024;13.826;2022-12-29T05:33:57;10.10;99.90
1277;DHT22;631;51.024;13.826;2022-12-29T05:36:23;10.10;99.90
1277;DHT22;631;51.024;13.826;2022-12-29T05:38:49;10.10;99.90
1277;DHT22;631;51.024;13.826;2022-12-29T05:41:14;10.00;99.90
1277;DHT22;631;51.024;13.826;2022-12-29T05:43:40;10.10;99.90
1277;DHT22;631;51.024;13.826;2022-12-29T05:46:05;10.10;99.90
1277;DHT22;631;51.024;13.826;2022-12-29T05:48:31;10.10;99.90
1277;DHT22;631;51.024;13.826;2022-12-29T05:50:57;10.20;99.90
1277;DHT22;631;51.024;13.826;2022-12-29T05:53:22;10.20;99.90
1277;DHT22;631;51.024;13.826;2022-12-29T05:55:48;10.10;99.90
1277;DHT22;631;51.024;13.826;2022-12-29T05:58:15;10.00;99.90
1277;DHT22;631;51.024;13.826;2022-12-29T06:00:40;10.10;99.90
1277;DHT22;631;51.024;13.826;2022-12-29T06:03:06;10.10;99.90
1277;DHT22;631;51.024;13.826;2022-12-29T06:05:32;10.00;99.90
1277;DHT22;631;51.024;13.826;2022-12-29T06:07:57;10.10;99.90
1277;DHT22;631;51.024;13.826;2022-12-29T06:10:23;10.10;99.90
1277;DHT22;631;51.024;13.826;2022-12-29T06:12:48;10.10;99.90
1277;DHT22;631;51.024;13.826;2022-12-29T06:15:14;10.20;99.90
1277;DHT22;631;51.024;13.826;2022-12-29T06:17:40;10.20;99.90
1277;DHT22;631;51.024;13.826;2022-12-29T06:20:07;10.20;99.90
1277;DHT22;631;51.024;13.826;2022-12-29T06:22:33;10.10;99.90
1277;DHT22;631;51.024;13.826;2022-12-29T06:24:59;10.10;99.90
1277;DHT22;631;51.024;13.826;2022-12-29T06:27:25;10.10;99.90
1277;DHT22;631;51.024;13.826;2022-12-29T06:29:51;10.20;99.90
1277;DHT22;631;51.024;13.826;2022-12-29T06:32:16;10.20;99.90
1277;DHT22;631;51.024;13.826;2022-12-29T06:34:42;10.20;99.90
1277;DHT22;631;51.024;13.826;2022-12-29T06:37:07;10.20;99.90
1277;DHT22;631;51.024;13.826;2022-12-29T06:39:33;10.10;99.90
1277;DHT22;631;51.024;13.826;2022-12-29T06:41:59;10.10;99.90
1277;DHT22;631;51.024;13.826;2022-12-29T06:44:24;10.10;99.90
1277;DHT22;631;51.024;13.826;2022-12-29T06:46:50;10.10;99.90
1277;DHT22;631;51.024;13.826;2022-12-29T06:49:16;10.00;99.90
1277;DHT22;631;51.024;13.826;2022-12-29T06:51:42;10.00;99.90
1277;DHT22;631;51.024;13.826;2022-12-29T06:54:07;10.00;99.90
1277;DHT22;631;51.024;13.826;2022-12-29T06:56:33;9.90;99.90
1277;DHT22;631;51.024;13.826;2022-12-29T06:58:59;9.90;99.90
1277;DHT22;631;51.024;13.826;2022-12-29T07:01:26;9.90;99.90
1277;DHT22;631;51.024;13.826;2022-12-29T07:03:52;9.80;99.90
1277;DHT22;631;51.024;13.826;2022-12-29T07:06:17;9.80;99.90
1277;DHT22;631;51.024;13.826;2022-12-29T07:08:43;9.80;99.90
1277;DHT22;631;51.024;13.826;2022-12-29T07:11:09;9.70;99.90
1277;DHT22;631;51.024;13.826;2022-12-29T07:13:35;9.50;99.90
1277;DHT22;631;51.024;13.826;2022-12-29T07:16:08;9.50;99.90
1277;DHT22;631;51.024;13.826;2022-12-29T07:18:34;9.40;99.90
1277;DHT22;631;51.024;13.826;2022-12-29T07:21:01;9.40;99.90
1277;DHT22;631;51.024;13.826;2022-12-29T07:23:27;9.40;99.90
1277;DHT22;631;51.024;13.826;2022-12-29T07:26:04;9.40;99.90
1277;DHT22;631;51.024;13.826;2022-12-29T07:28:30;9.40;99.90
1277;DHT22;631;51.024;13.826;2022-12-29T07:30:58;9.40;99.90
1277;DHT22;631;51.024;13.826;2022-12-29T07:33:23;9.30;99.90
1277;DHT22;631;51.024;13.826;2022-12-29T07:35:49;9.30;99.90
1277;DHT22;631;51.024;13.826;2022-12-29T07:38:15;9.30;99.90
1277;DHT22;631;51.024;13.826;2022-12-29T07:40:42;9.30;99.90
1277;DHT22;631;51.024;13.826;2022-12-29T07:43:07;9.30;99.90
1277;DHT22;631;51.024;13.826;2022-12-29T07:45:33;9.30;99.90
1277;DHT22;631;51.024;13.826;2022-12-29T07:47:58;9.40;99.90
1277;DHT22;631;51.024;13.826;2022-12-29T07:50:24;9.40;99.90
1277;DHT22;631;51.024;13.826;2022-12-29T07:52:49;9.40;99.90
1277;DHT22;631;51.024;13.826;2022-12-29T07:55:15;9.40;99.90
1277;DHT22;631;51.024;13.826;2022-12-29T07:57:41;9.40;99.90
1277;DHT22;631;51.024;13.826;2022-12-29T08:00:07;9.40;99.90
1277;DHT22;631;51.024;13.826;2022-12-29T08:02:35;9.50;99.90
1277;DHT22;631;51.024;13.826;2022-12-29T08:05:01;9.50;99.90
1277;DHT22;631;51.024;13.826;2022-12-29T08:07:27;9.60;99.90
1277;DHT22;631;51.024;13.826;2022-12-29T08:09:52;9.60;99.90
1277;DHT22;631;51.024;13.826;2022-12-29T08:12:18;9.80;99.90
1277;DHT22;631;51.024;13.826;2022-12-29T08:14:44;9.90;99.90
1277;DHT22;631;51.024;13.826;2022-12-29T08:17:09;9.90;99.90
1277;DHT22;631;51.024;13.826;2022-12-29T08:19:35;10.00;99.90
1277;DHT22;631;51.024;13.826;2022-12-29T08:22:01;10.10;99.90
1277;DHT22;631;51.024;13.826;2022-12-29T08:24:27;10.30;99.90
1277;DHT22;631;51.024;13.826;2022-12-29T08:26:53;10.50;99.90
1277;DHT22;631;51.024;13.826;2022-12-29T08:29:19;10.60;99.90
1277;DHT22;631;51.024;13.826;2022-12-29T08:31:46;10.80;99.90
1277;DHT22;631;51.024;13.826;2022-12-29T08:34:12;10.90;99.90
1277;DHT22;631;51.024;13.826;2022-12-29T08:36:38;11.10;99.90
1277;DHT22;631;51.024;13.826;2022-12-29T08:39:04;11.20;99.90
1277;DHT22;631;51.024;13.826;2022-12-29T08:41:29;11.40;99.90
1277;DHT22;631;51.024;13.826;2022-12-29T08:43:56;11.40;99.90
1277;DHT22;631;51.024;13.826;2022-12-29T08:46:21;11.60;99.90
1277;DHT22;631;51.024;13.826;2022-12-29T08:48:47;11.80;99.90
1277;DHT22;631;51.024;13.826;2022-12-29T08:51:13;11.80;99.90
1277;DHT22;631;51.024;13.826;2022-12-29T08:53:38;11.70;99.90
1277;DHT22;631;51.024;13.826;2022-12-29T08:56:04;11.80;99.90
1277;DHT22;631;51.024;13.826;2022-12-29T08:58:30;11.90;99.90
1277;DHT22;631;51.024;13.826;2022-12-29T09:00:57;12.00;99.90
1277;DHT22;631;51.024;13.826;2022-12-29T09:03:24;11.80;99.10
1277;DHT22;631;51.024;13.826;2022-12-29T09:05:51;11.80;99.90
1277;DHT22;631;51.024;13.826;2022-12-29T09:08:17;11.70;99.90
1277;DHT22;631;51.024;13.826;2022-12-29T09:10:44;11.70;99.90
1277;DHT22;631;51.024;13.826;2022-12-29T09:13:10;11.60;99.90
1277;DHT22;631;51.024;13.826;2022-12-29T09:15:36;11.50;99.90
1277;DHT22;631;51.024;13.826;2022-12-29T09:18:02;11.40;99.90
1277;DHT22;631;51.024;13.826;2022-12-29T09:20:28;11.20;99.90
1277;DHT22;631;51.024;13.826;2022-12-29T09:22:53;11.30;99.90
1277;DHT22;631;51.024;13.826;2022-12-29T09:25:19;11.00;99.90
1277;DHT22;631;51.024;13.826;2022-12-29T09:27:48;11.00;99.90
1277;DHT22;631;51.024;13.826;2022-12-29T09:30:13;10.80;99.90
1277;DHT22;631;51.024;13.826;2022-12-29T09:32:40;10.90;99.90
1277;DHT22;631;51.024;13.826;2022-12-29T09:35:06;10.90;99.90
1277;DHT22;631;51.024;13.826;2022-12-29T09:37:31;10.80;99.90
1277;DHT22;631;51.024;13.826;2022-12-29T09:39:57;10.80;99.90
1277;DHT22;631;51.024;13.826;2022-12-29T09:42:37;10.90;99.90
1277;DHT22;631;51.024;13.826;2022-12-29T09:45:13;11.00;99.90
1277;DHT22;631;51.024;13.826;2022-12-29T09:47:41;11.00;99.90
1277;DHT22;631;51.024;13.826;2022-12-29T09:50:21;11.00;99.90
1277;DHT22;631;51.024;13.826;2022-12-29T09:52:52;11.00;99.90
1277;DHT22;631;51.024;13.826;2022-12-29T09:55:22;11.10;99.90
1277;DHT22;631;51.024;13.826;2022-12-29T09:58:14;11.20;99.90
1277;DHT22;631;51.024;13.826;2022-12-29T10:03:48;11.50;99.90
1277;DHT22;631;51.024;13.826;2022-12-29T10:06:28;11.60;99.90
1277;DHT22;631;51.024;13.826;2022-12-29T10:20:48;12.60;99.90
1277;DHT22;631;51.024;13.826;2022-12-29T10:25:53;13.70;97.10
1277;DHT22;631;51.024;13.826;2022-12-29T10:28:23;14.30;93.60
1277;DHT22;631;51.024;13.826;2022-12-29T10:30:50;14.70;91.30
1277;DHT22;631;51.024;13.826;2022-12-29T10:33:23;15.20;90.10
1277;DHT22;631;51.024;13.826;2022-12-29T10:35:52;15.80;85.30
1277;DHT22;631;51.024;13.826;2022-12-29T10:40:58;15.90;82.00
1277;DHT22;631;51.024;13.826;2022-12-29T10:43:30;16.20;78.70
1277;DHT22;631;51.024;13.826;2022-12-29T10:46:04;16.30;76.90
1277;DHT22;631;51.024;13.826;2022-12-29T10:48:33;16.70;75.40
1277;DHT22;631;51.024;13.826;2022-12-29T10:51:04;17.30;71.50
1277;DHT22;631;51.024;13.826;2022-12-29T10:53:55;18.00;67.10
1277;DHT22;631;51.024;13.826;2022-12-29T10:56:34;18.20;62.90
1277;DHT22;631;51.024;13.826;2022-12-29T11:01:47;17.10;64.70
1277;DHT22;631;51.024;13.826;2022-12-29T11:07:10;16.60;67.10
1277;DHT22;631;51.024;13.826;2022-12-29T11:09:37;16.70;68.50
1277;DHT22;631;51.024;13.826;2022-12-29T11:12:24;17.40;68.50
1277;DHT22;631;51.024;13.826;2022-12-29T11:15:13;18.20;64.60
1277;DHT22;631;51.024;13.826;2022-12-29T11:17:50;18.50;57.40
1277;DHT22;631;51.024;13.826;2022-12-29T11:20:35;18.20;58.60
1277;DHT22;631;51.024;13.826;2022-12-29T11:23:02;18.80;56.70
1277;DHT22;631;51.024;13.826;2022-12-29T11:25:28;18.40;56.10
1277;DHT22;631;51.024;13.826;2022-12-29T11:28:01;17.90;56.70
1277;DHT22;631;51.024;13.826;2022-12-29T11:30:31;17.30;58.80
1277;DHT22;631;51.024;13.826;2022-12-29T11:32:58;16.70;58.60
1277;DHT22;631;51.024;13.826;2022-12-29T11:35:43;16.10;61.90
1277;DHT22;631;51.024;13.826;2022-12-29T11:38:36;15.80;65.80
1277;DHT22;631;51.024;13.826;2022-12-29T11:41:03;15.50;68.10
1277;DHT22;631;51.024;13.826;2022-12-29T11:43:34;15.50;68.90
1277;DHT22;631;51.024;13.826;2022-12-29T11:46:02;15.50;67.30
1277;DHT22;631;51.024;13.826;2022-12-29T11:48:38;15.30;71.50
1277;DHT22;631;51.024;13.826;2022-12-29T11:51:05;15.10;72.10
1277;DHT22;631;51.024;13.826;2022-12-29T11:53:48;14.90;75.20
1277;DHT22;631;51.024;13.826;2022-12-29T11:56:17;14.90;77.00
1277;DHT22;631;51.024;13.826;2022-12-29T11:58:44;14.80;79.30
1277;DHT22;631;51.024;13.826;2022-12-29T12:01:13;14.80;79.00
1277;DHT22;631;51.024;13.826;2022-12-29T12:06:33;14.60;79.70
1277;DHT22;631;51.024;13.826;2022-12-29T12:09:07;14.60;79.10
1277;DHT22;631;51.024;13.826;2022-12-29T12:11:39;14.50;81.60
1277;DHT22;631;51.024;13.826;2022-12-29T12:14:22;14.60;83.20
1277;DHT22;631;51.024;13.826;2022-12-29T12:16:59;14.60;83.80
1277;DHT22;631;51.024;13.826;2022-12-29T12:22:01;14.50;84.20
1277;DHT22;631;51.024;13.826;2022-12-29T12:27:16;14.50;84.30
1277;DHT22;631;51.024;13.826;2022-12-29T12:30:01;14.60;83.80
1277;DHT22;631;51.024;13.826;2022-12-29T12:34:57;14.50;84.00
1277;DHT22;631;51.024;13.826;2022-12-29T12:45:39;14.50;82.70
1277;DHT22;631;51.024;13.826;2022-12-29T12:53:47;14.60;82.30
1277;DHT22;631;51.024;13.826;2022-12-29T12:56:27;14.60;81.40
1277;DHT22;631;51.024;13.826;2022-12-29T12:59:15;14.50;81.80
1277;DHT22;631;51.024;13.826;2022-12-29T13:02:01;14.60;81.50
1277;DHT22;631;51.024;13.826;2022-12-29T13:07:46;14.80;80.70
1277;DHT22;631;51.024;13.826;2022-12-29T13:19:41;15.00;78.40
1277;DHT22;631;51.024;13.826;2022-12-29T13:27:54;15.10;77.80
1277;DHT22;631;51.024;13.826;2022-12-29T13:30:26;15.50;75.70
1277;DHT22;631;51.024;13.826;2022-12-29T13:36:05;15.50;74.50
1277;DHT22;631;51.024;13.826;2022-12-29T13:38:51;15.60;74.70
1277;DHT22;631;51.024;13.826;2022-12-29T13:41:36;15.90;73.70
1277;DHT22;631;51.024;13.826;2022-12-29T13:44:05;15.60;73.30
1277;DHT22;631;51.024;13.826;2022-12-29T13:46:40;15.20;75.40
1277;DHT22;631;51.024;13.826;2022-12-29T13:49:19;15.00;76.30
1277;DHT22;631;51.024;13.826;2022-12-29T13:51:53;14.90;76.90
1277;DHT22;631;51.024;13.826;2022-12-29T13:58:03;14.80;77.40
1277;DHT22;631;51.024;13.826;2022-12-29T14:00:06;14.80;78.20
1277;DHT22;631;51.024;13.826;2022-12-29T14:07:46;14.50;79.90
1277;DHT22;631;51.024;13.826;2022-12-29T14:10:48;14.50;79.60
1277;DHT22;631;51.024;13.826;2022-12-29T14:13:18;14.60;81.10
1277;DHT22;631;51.024;13.826;2022-12-29T14:15:45;14.50;80.90
1277;DHT22;631;51.024;13.826;2022-12-29T14:18:27;14.40;81.70
1277;DHT22;631;51.024;13.826;2022-12-29T14:23:43;14.30;81.90
1277;DHT22;631;51.024;13.826;2022-12-29T14:28:53;14.30;82.90
1277;DHT22;631;51.024;13.826;2022-12-29T14:36:41;14.20;83.30
1277;DHT22;631;51.024;13.826;2022-12-29T14:50:18;14.20;83.10
1277;DHT22;631;51.024;13.826;2022-12-29T14:52:56;14.20;83.70
1277;DHT22;631;51.024;13.826;2022-12-29T14:55:41;14.00;83.50
1277;DHT22;631;51.024;13.826;2022-12-29T14:58:21;14.10;84.00
1277;DHT22;631;51.024;13.826;2022-12-29T15:00:48;14.10;83.80
1277;DHT22;631;51.024;13.826;2022-12-29T15:03:24;14.00;84.00
1277;DHT22;631;51.024;13.826;2022-12-29T15:05:56;14.00;84.20
1277;DHT22;631;51.024;13.826;2022-12-29T15:08:26;14.00;84.70
1277;DHT22;631;51.024;13.826;2022-12-29T15:13:32;13.90;84.60
1277;DHT22;631;51.024;13.826;2022-12-29T15:15:58;13.80;85.30
1277;DHT22;631;51.024;13.826;2022-12-29T15:18:26;13.80;85.60
1277;DHT22;631;51.024;13.826;2022-12-29T15:20:55;13.80;85.70
1277;DHT22;631;51.024;13.826;2022-12-29T15:23:22;13.70;85.90
1277;DHT22;631;51.024;13.826;2022-12-29T15:26:09;13.70;87.60
1277;DHT22;631;51.024;13.826;2022-12-29T15:28:42;13.70;86.50
1277;DHT22;631;51.024;13.826;2022-12-29T15:31:19;13.70;87.50
1277;DHT22;631;51.024;13.826;2022-12-29T15:33:48;13.60;87.70
1277;DHT22;631;51.024;13.826;2022-12-29T15:36:23;13.60;88.30
1277;DHT22;631;51.024;13.826;2022-12-29T15:38:49;13.50;89.50
1277;DHT22;631;51.024;13.826;2022-12-29T15:41:36;13.50;89.60
1277;DHT22;631;51.024;13.826;2022-12-29T15:46:52;13.40;90.70
1277;DHT22;631;51.024;13.826;2022-12-29T15:49:18;13.30;90.80
1277;DHT22;631;51.024;13.826;2022-12-29T15:51:44;13.30;91.00
1277;DHT22;631;51.024;13.826;2022-12-29T15:54:19;13.30;90.60
1277;DHT22;631;51.024;13.826;2022-12-29T15:56:46;13.20;90.80
1277;DHT22;631;51.024;13.826;2022-12-29T15:59:31;13.30;90.10
1277;DHT22;631;51.024;13.826;2022-12-29T16:01:59;13.30;89.80
1277;DHT22;631;51.024;13.826;2022-12-29T16:04:28;13.40;88.70
1277;DHT22;631;51.024;13.826;2022-12-29T16:06:57;13.30;88.80
1277;DHT22;631;51.024;13.826;2022-12-29T16:09:31;13.30;89.90
1277;DHT22;631;51.024;13.826;2022-12-29T16:12:03;13.30;89.00
1277;DHT22;631;51.024;13.826;2022-12-29T16:17:00;13.20;89.90
1277;DHT22;631;51.024;13.826;2022-12-29T16:19:37;13.20;90.10
1277;DHT22;631;51.024;13.826;2022-12-29T16:22:11;13.20;89.40
1277;DHT22;631;51.024;13.826;2022-12-29T16:24:39;13.20;88.80
1277;DHT22;631;51.024;13.826;2022-12-29T16:29:30;13.10;90.60
1277;DHT22;631;51.024;13.826;2022-12-29T16:31:58;13.00;91.10
1277;DHT22;631;51.024;13.826;2022-12-29T16:34:51;13.00;90.70
1277;DHT22;631;51.024;13.826;2022-12-29T16:37:33;13.10;90.80
1277;DHT22;631;51.024;13.826;2022-12-29T16:50:37;12.80;91.50
1277;DHT22;631;51.024;13.826;2022-12-29T16:53:03;12.80;91.70
1277;DHT22;631;51.024;13.826;2022-12-29T16:55:30;12.70;92.10
1277;DHT22;631;51.024;13.826;2022-12-29T16:57:57;12.70;92.30
1277;DHT22;631;51.024;13.826;2022-12-29T17:00:26;12.70;92.70
1277;DHT22;631;51.024;13.826;2022-12-29T17:02:55;12.70;92.60
1277;DHT22;631;51.024;13.826;2022-12-29T17:05:21;12.60;92.60
1277;DHT22;631;51.024;13.826;2022-12-29T17:07:47;12.60;92.80
1277;DHT22;631;51.024;13.826;2022-12-29T17:10:13;12.60;92.80
1277;DHT22;631;51.024;13.826;2022-12-29T17:12:41;12.70;93.10
1277;DHT22;631;51.024;13.826;2022-12-29T17:17:49;12.70;93.60
1277;DHT22;631;51.024;13.826;2022-12-29T17:20:20;12.50;94.00
1277;DHT22;631;51.024;13.826;2022-12-29T17:22:47;12.50;94.50
1277;DHT22;631;51.024;13.826;2022-12-29T17:25:15;12.50;94.70
1277;DHT22;631;51.024;13.826;2022-12-29T17:27:46;12.40;95.30
1277;DHT22;631;51.024;13.826;2022-12-29T17:30:16;12.30;95.50
1277;DHT22;631;51.024;13.826;2022-12-29T17:32:45;12.30;95.90
1277;DHT22;631;51.024;13.826;2022-12-29T17:35:16;12.20;96.40
1277;DHT22;631;51.024;13.826;2022-12-29T17:37:42;12.20;96.70
1277;DHT22;631;51.024;13.826;2022-12-29T17:40:16;12.20;97.00
1277;DHT22;631;51.024;13.826;2022-12-29T17:42:44;12.20;97.30
1277;DHT22;631;51.024;13.826;2022-12-29T17:45:15;12.20;97.40
1277;DHT22;631;51.024;13.826;2022-12-29T17:47:41;12.10;97.80
1277;DHT22;631;51.024;13.826;2022-12-29T17:50:16;12.00;98.50
1277;DHT22;631;51.024;13.826;2022-12-29T17:52:43;11.90;99.00
1277;DHT22;631;51.024;13.826;2022-12-29T17:55:16;11.90;99.60
1277;DHT22;631;51.024;13.826;2022-12-29T17:57:42;11.90;99.90
1277;DHT22;631;51.024;13.826;2022-12-29T18:00:17;11.80;99.90
1277;DHT22;631;51.024;13.826;2022-12-29T18:02:43;11.70;99.90
1277;DHT22;631;51.024;13.826;2022-12-29T18:05:21;11.70;99.90
1277;DHT22;631;51.024;13.826;2022-12-29T18:07:50;11.70;99.90
1277;DHT22;631;51.024;13.826;2022-12-29T18:10:16;11.60;99.90
1277;DHT22;631;51.024;13.826;2022-12-29T18:12:44;11.50;99.90
1277;DHT22;631;51.024;13.826;2022-12-29T18:15:17;11.50;99.90
1277;DHT22;631;51.024;13.826;2022-12-29T18:17:58;11.40;99.90
1277;DHT22;631;51.024;13.826;2022-12-29T18:20:24;11.30;99.90
1277;DHT22;631;51.024;13.826;2022-12-29T18:22:50;11.40;99.90
1277;DHT22;631;51.024;13.826;2022-12-29T18:25:25;11.30;99.90
1277;DHT22;631;51.024;13.826;2022-12-29T18:27:51;11.20;99.90
1277;DHT22;631;51.024;13.826;2022-12-29T18:30:17;11.10;99.90
1277;DHT22;631;51.024;13.826;2022-12-29T18:32:43;11.10;99.90
1277;DHT22;631;51.024;13.826;2022-12-29T18:35:22;11.00;99.90
1277;DHT22;631;51.024;13.826;2022-12-29T18:37:50;11.00;99.90
1277;DHT22;631;51.024;13.826;2022-12-29T18:40:15;11.00;99.90
1277;DHT22;631;51.024;13.826;2022-12-29T18:42:41;11.00;99.90
1277;DHT22;631;51.024;13.826;2022-12-29T18:45:19;11.00;99.90
1277;DHT22;631;51.024;13.826;2022-12-29T18:47:45;11.00;99.90
1277;DHT22;631;51.024;13.826;2022-12-29T18:50:11;11.10;99.90
1277;DHT22;631;51.024;13.826;2022-12-29T18:52:37;11.10;99.90
1277;DHT22;631;51.024;13.826;2022-12-29T18:55:03;11.10;99.90
1277;DHT22;631;51.024;13.826;2022-12-29T18:57:34;11.00;99.90
1277;DHT22;631;51.024;13.826;2022-12-29T18:59:59;11.00;99.90
1277;DHT22;631;51.024;13.826;2022-12-29T19:02:25;10.90;99.90
1277;DHT22;631;51.024;13.826;2022-12-29T19:04:52;10.80;99.90
1277;DHT22;631;51.024;13.826;2022-12-29T19:07:18;10.80;99.90
1277;DHT22;631;51.024;13.826;2022-12-29T19:09:44;10.80;99.90
1277;DHT22;631;51.024;13.826;2022-12-29T19:12:14;10.80;99.90
1277;DHT22;631;51.024;13.826;2022-12-29T19:14:40;10.70;99.90